sensor_id;sensor_type;location;lat;lon;timestamp;pressure;altitude;pressure_sealevel;temperature;humidity
64711;BME280;51139;45.626;6.850;2024-02-21T00:00:08;82564.97;;;-0.54;100.00
64711;BME280;51139;45.626;6.850;2024-02-21T00:02:33;82561.91;;;-0.36;100.00
64711;BME280;51139;45.626;6.850;2024-02-21T00:04:58;82559.06;;;-0.66;100.00
64711;BME280;51139;45.626;6.850;2024-02-21T00:07:24;82558.13;;;-0.75;100.00
64711;BME280;51139;45.626;6.850;2024-02-21T00:09:49;82556.22;;;-0.28;100.00
64711;BME280;51139;45.626;6.850;2024-02-21T00:12:15;82557.41;;;-0.18;100.00
64711;BME280;51139;45.626;6.850;2024-02-21T00:14:40;82553.63;;;-0.17;100.00
64711;BME280;51139;45.626;6.850;2024-02-21T00:17:06;82549.38;;;-0.60;100.00
64711;BME280;51139;45.626;6.850;2024-02-21T00:19:31;82554.59;;;-0.43;100.00
64711;BME280;51139;45.626;6.850;2024-02-21T00:21:56;82561.19;;;-0.53;100.00
64711;BME280;51139;45.626;6.850;2024-02-21T00:24:22;82557.66;;;-0.73;100.00
64711;BME280;51139;45.626;6.850;2024-02-21T00:26:47;82540.38;;;-0.76;100.00
64711;BME280;51139;45.626;6.850;2024-02-21T00:29:12;82542.28;;;-0.71;100.00
64711;BME280;51139;45.626;6.850;2024-02-21T00:31:38;82547.22;;;-0.96;100.00
64711;BME280;51139;45.626;6.850;2024-02-21T00:34:03;82548.91;;;-0.87;100.00
64711;BME280;51139;45.626;6.850;2024-02-21T00:36:29;82543.44;;;-0.72;100.00
64711;BME280;51139;45.626;6.850;2024-02-21T00:38:54;82538.72;;;-0.85;100.00
64711;BME280;51139;45.626;6.850;2024-02-21T00:41:19;82550.53;;;-0.95;100.00
64711;BME280;51139;45.626;6.850;2024-02-21T00:43:45;82550.09;;;-0.77;100.00
64711;BME280;51139;45.626;6.850;2024-02-21T00:46:10;82552.44;;;-0.79;100.00
64711;BME280;51139;45.626;6.850;2024-02-21T00:48:35;82553.63;;;-0.85;100.00
64711;BME280;51139;45.626;6.850;2024-02-21T00:51:01;82547.94;;;-0.78;100.00
64711;BME280;51139;45.626;6.850;2024-02-21T00:53:26;82548.88;;;-0.93;100.00
64711;BME280;51139;45.626;6.850;2024-02-21T00:55:52;82546.75;;;-1.00;100.00
64711;BME280;51139;45.626;6.850;2024-02-21T00:58:17;82552.63;;;-1.16;100.00
64711;BME280;51139;45.626;6.850;2024-02-21T01:00:43;82543.88;;;-1.25;100.00
64711;BME280;51139;45.626;6.850;2024-02-21T01:03:08;82542.44;;;-1.20;100.00
64711;BME280;51139;45.626;6.850;2024-02-21T01:05:33;82546.28;;;-1.04;100.00
64711;BME280;51139;45.626;6.850;2024-02-21T01:07:59;82547.44;;;-1.05;100.00
64711;BME280;51139;45.626;6.850;2024-02-21T01:10:24;82550.03;;;-1.11;100.00
64711;BME280;51139;45.626;6.850;2024-02-21T01:12:49;82559.44;;;-1.30;100.00
64711;BME280;51139;45.626;6.850;2024-02-21T01:15:15;82559.47;;;-1.25;100.00
64711;BME280;51139;45.626;6.850;2024-02-21T01:17:40;82553.03;;;-1.35;100.00
64711;BME280;51139;45.626;6.850;2024-02-21T01:20:06;82550.44;;;-1.35;100.00
64711;BME280;51139;45.626;6.850;2024-02-21T01:22:32;82547.59;;;-1.37;100.00
64711;BME280;51139;45.626;6.850;2024-02-21T01:24:58;82536.97;;;-1.39;100.00
64711;BME280;51139;45.626;6.850;2024-02-21T01:27:23;82541.25;;;-1.30;100.00
64711;BME280;51139;45.626;6.850;2024-02-21T01:29:48;82543.19;;;-0.91;100.00
64711;BME280;51139;45.626;6.850;2024-02-21T01:32:15;82550.31;;;-0.69;100.00
64711;BME280;51139;45.626;6.850;2024-02-21T01:34:41;82537.31;;;-0.69;100.00
64711;BME280;51139;45.626;6.850;2024-02-21T01:37:06;82535.41;;;-0.63;100.00
64711;BME280;51139;45.626;6.850;2024-02-21T01:39:33;82536.81;;;-0.62;100.00
64711;BME280;51139;45.626;6.850;2024-02-21T01:41:58;82540.13;;;-0.78;100.00
64711;BME280;51139;45.626;6.850;2024-02-21T01:44:24;82532.34;;;-0.78;100.00
64711;BME280;51139;45.626;6.850;2024-02-21T01:46:50;82528.31;;;-0.91;100.00
64711;BME280;51139;45.626;6.850;2024-02-21T01:49:17;82536.34;;;-0.77;100.00
64711;BME280;51139;45.626;6.850;2024-02-21T01:51:43;82525.50;;;-0.87;100.00
64711;BME280;51139;45.626;6.850;2024-02-21T01:54:10;82520.53;;;-0.85;100.00
64711;BME280;51139;45.626;6.850;2024-02-21T01:56:36;82524.78;;;-0.82;100.00
64711;BME280;51139;45.626;6.850;2024-02-21T01:59:01;82525.69;;;-0.28;100.00
64711;BME280;51139;45.626;6.850;2024-02-21T02:01:29;82520.25;;;-0.41;100.00
64711;BME280;51139;45.626;6.850;2024-02-21T02:03:55;82513.63;;;-0.37;100.00
64711;BME280;51139;45.626;6.850;2024-02-21T02:06:20;82511.03;;;-0.54;100.00
64711;BME280;51139;45.626;6.850;2024-02-21T02:08:46;82504.66;;;-0.59;100.00
64711;BME280;51139;45.626;6.850;2024-02-21T02:11:13;82498.25;;;-0.57;100.00
64711;BME280;51139;45.626;6.850;2024-02-21T02:13:39;82488.81;;;-0.55;100.00
64711;BME280;51139;45.626;6.850;2024-02-21T02:16:05;82487.28;;;-0.05;95.77
64711;BME280;51139;45.626;6.850;2024-02-21T02:18:30;82486.06;;;0.08;91.07
64711;BME280;51139;45.626;6.850;2024-02-21T07:17:41;82407.91;;;0.92;72.99
64711;BME280;51139;45.626;6.850;2024-02-21T07:20:07;82413.94;;;1.42;69.47
64711;BME280;51139;45.626;6.850;2024-02-21T07:22:32;82413.19;;;1.16;70.15
64711;BME280;51139;45.626;6.850;2024-02-21T07:24:58;82417.59;;;1.33;69.55
64711;BME280;51139;45.626;6.850;2024-02-21T07:27:25;82407.56;;;1.37;68.89
64711;BME280;51139;45.626;6.850;2024-02-21T07:29:53;82420.25;;;1.52;66.87
64711;BME280;51139;45.626;6.850;2024-02-21T07:32:19;82420.56;;;1.68;65.57
64711;BME280;51139;45.626;6.850;2024-02-21T07:34:44;82421.94;;;1.74;65.02
64711;BME280;51139;45.626;6.850;2024-02-21T07:37:11;82426.97;;;1.72;68.11
64711;BME280;51139;45.626;6.850;2024-02-21T07:39:36;82430.25;;;1.73;68.48
64711;BME280;51139;45.626;6.850;2024-02-21T07:42:10;82430.53;;;1.94;69.77
64711;BME280;51139;45.626;6.850;2024-02-21T07:44:35;82423.00;;;2.35;68.35
64711;BME280;51139;45.626;6.850;2024-02-21T07:47:04;82424.84;;;2.40;68.65
64711;BME280;51139;45.626;6.850;2024-02-21T07:49:31;82411.47;;;2.62;65.35
64711;BME280;51139;45.626;6.850;2024-02-21T07:51:57;82403.94;;;2.91;63.82
64711;BME280;51139;45.626;6.850;2024-02-21T07:54:24;82414.34;;;3.16;62.29
64711;BME280;51139;45.626;6.850;2024-02-21T07:56:50;82410.88;;;3.41;63.29
64711;BME280;51139;45.626;6.850;2024-02-21T07:59:15;82413.56;;;3.68;61.31
64711;BME280;51139;45.626;6.850;2024-02-21T08:01:42;82413.25;;;3.71;59.77
64711;BME280;51139;45.626;6.850;2024-02-21T08:04:08;82408.91;;;3.60;62.62
64711;BME280;51139;45.626;6.850;2024-02-21T08:06:33;82416.66;;;3.66;60.91
64711;BME280;51139;45.626;6.850;2024-02-21T08:08:59;82416.47;;;3.77;59.28
64711;BME280;51139;45.626;6.850;2024-02-21T08:11:25;82422.94;;;3.90;58.39
64711;BME280;51139;45.626;6.850;2024-02-21T08:13:51;82423.38;;;4.07;57.74
64711;BME280;51139;45.626;6.850;2024-02-21T08:16:16;82420.91;;;4.77;52.78
64711;BME280;51139;45.626;6.850;2024-02-21T08:18:44;82426.03;;;4.96;48.81
64711;BME280;51139;45.626;6.850;2024-02-21T08:21:09;82422.41;;;5.34;46.60
64711;BME280;51139;45.626;6.850;2024-02-21T08:23:34;82416.34;;;5.81;45.68
64711;BME280;51139;45.626;6.850;2024-02-21T08:26:03;82415.69;;;5.46;44.61
64711;BME280;51139;45.626;6.850;2024-02-21T08:28:28;82411.38;;;5.35;44.46
64711;BME280;51139;45.626;6.850;2024-02-21T08:30:53;82410.03;;;5.42;42.32
64711;BME280;51139;45.626;6.850;2024-02-21T08:33:19;82409.97;;;5.77;44.63
64711;BME280;51139;45.626;6.850;2024-02-21T08:35:49;82409.47;;;5.57;44.14
64711;BME280;51139;45.626;6.850;2024-02-21T08:38:15;82416.13;;;6.22;46.24
64711;BME280;51139;45.626;6.850;2024-02-21T08:40:40;82416.19;;;5.87;43.67
64711;BME280;51139;45.626;6.850;2024-02-21T08:43:05;82408.09;;;6.56;44.70
64711;BME280;51139;45.626;6.850;2024-02-21T08:45:31;82418.31;;;7.05;43.00
64711;BME280;51139;45.626;6.850;2024-02-21T08:47:56;82414.88;;;7.25;42.31
64711;BME280;51139;45.626;6.850;2024-02-21T08:50:22;82421.91;;;6.49;44.65
64711;BME280;51139;45.626;6.850;2024-02-21T08:52:47;82416.47;;;6.47;40.64
64711;BME280;51139;45.626;6.850;2024-02-21T08:55:12;82413.84;;;6.84;43.99
64711;BME280;51139;45.626;6.850;2024-02-21T08:57:38;82416.69;;;6.94;41.74
64711;BME280;51139;45.626;6.850;2024-02-21T09:00:05;82416.53;;;7.52;41.22
64711;BME280;51139;45.626;6.850;2024-02-21T09:02:36;82415.00;;;7.80;42.89
64711;BME280;51139;45.626;6.850;2024-02-21T09:05:02;82414.47;;;7.89;43.47
64711;BME280;51139;45.626;6.850;2024-02-21T09:07:30;82412.53;;;7.82;41.70
64711;BME280;51139;45.626;6.850;2024-02-21T09:09:58;82416.63;;;8.60;41.58
64711;BME280;51139;45.626;6.850;2024-02-21T09:12:24;82412.06;;;8.45;43.18
64711;BME280;51139;45.626;6.850;2024-02-21T09:14:49;82418.00;;;8.38;42.48
64711;BME280;51139;45.626;6.850;2024-02-21T09:17:16;82410.66;;;8.52;41.66
64711;BME280;51139;45.626;6.850;2024-02-21T09:19:47;82407.81;;;8.73;41.29
64711;BME280;51139;45.626;6.850;2024-02-21T09:22:13;82411.66;;;8.80;44.72
64711;BME280;51139;45.626;6.850;2024-02-21T09:24:38;82411.66;;;8.88;45.10
64711;BME280;51139;45.626;6.850;2024-02-21T09:27:04;82407.91;;;9.55;43.45
64711;BME280;51139;45.626;6.850;2024-02-21T09:29:31;82415.09;;;9.22;44.54
64711;BME280;51139;45.626;6.850;2024-02-21T09:31:58;82416.66;;;9.25;43.59
64711;BME280;51139;45.626;6.850;2024-02-21T09:34:24;82416.03;;;9.49;43.47
64711;BME280;51139;45.626;6.850;2024-02-21T09:36:49;82422.41;;;8.82;44.31
64711;BME280;51139;45.626;6.850;2024-02-21T09:39:14;82415.19;;;9.80;46.00
64711;BME280;51139;45.626;6.850;2024-02-21T09:41:45;82403.28;;;11.16;41.79
64711;BME280;51139;45.626;6.850;2024-02-21T09:44:13;82406.81;;;10.75;43.84
64711;BME280;51139;45.626;6.850;2024-02-21T09:46:52;82409.59;;;9.68;44.25
64711;BME280;51139;45.626;6.850;2024-02-21T09:49:30;82404.16;;;9.66;42.75
64711;BME280;51139;45.626;6.850;2024-02-21T09:52:02;82405.81;;;9.87;42.71
64711;BME280;51139;45.626;6.850;2024-02-21T09:54:29;82417.16;;;8.36;42.46
64711;BME280;51139;45.626;6.850;2024-02-21T09:56:57;82412.56;;;8.59;42.83
64711;BME280;51139;45.626;6.850;2024-02-21T09:59:24;82409.75;;;8.34;40.97
64711;BME280;51139;45.626;6.850;2024-02-21T10:01:50;82418.91;;;8.25;43.97
64711;BME280;51139;45.626;6.850;2024-02-21T10:04:16;82415.38;;;8.38;40.79
64711;BME280;51139;45.626;6.850;2024-02-21T10:06:44;82416.97;;;8.10;37.28
64711;BME280;51139;45.626;6.850;2024-02-21T10:09:23;82419.06;;;8.82;41.28
64711;BME280;51139;45.626;6.850;2024-02-21T10:11:51;82415.16;;;8.98;39.91
64711;BME280;51139;45.626;6.850;2024-02-21T10:14:17;82419.56;;;8.96;41.17
64711;BME280;51139;45.626;6.850;2024-02-21T10:16:43;82430.22;;;9.21;40.28
64711;BME280;51139;45.626;6.850;2024-02-21T10:19:17;82422.06;;;8.47;40.43
64711;BME280;51139;45.626;6.850;2024-02-21T10:21:42;82410.41;;;7.65;39.74
64711;BME280;51139;45.626;6.850;2024-02-21T10:24:07;82428.72;;;6.45;41.84
64711;BME280;51139;45.626;6.850;2024-02-21T10:26:33;82423.53;;;7.41;44.27
64711;BME280;51139;45.626;6.850;2024-02-21T10:29:01;82425.38;;;7.78;41.25
64711;BME280;51139;45.626;6.850;2024-02-21T10:31:28;82420.91;;;7.49;43.23
64711;BME280;51139;45.626;6.850;2024-02-21T10:33:57;82421.69;;;7.88;43.52
64711;BME280;51139;45.626;6.850;2024-02-21T10:36:24;82425.25;;;8.38;42.05
64711;BME280;51139;45.626;6.850;2024-02-21T10:38:52;82414.47;;;7.73;45.90
64711;BME280;51139;45.626;6.850;2024-02-21T10:41:20;82422.97;;;8.11;43.56
64711;BME280;51139;45.626;6.850;2024-02-21T10:43:49;82411.84;;;7.81;43.52
64711;BME280;51139;45.626;6.850;2024-02-21T10:46:18;82411.66;;;7.87;43.82
64711;BME280;51139;45.626;6.850;2024-02-21T10:48:45;82410.09;;;8.07;44.00
64711;BME280;51139;45.626;6.850;2024-02-21T10:51:20;82407.81;;;8.11;42.68
64711;BME280;51139;45.626;6.850;2024-02-21T10:56:32;82405.00;;;8.71;46.54
64711;BME280;51139;45.626;6.850;2024-02-21T10:59:04;82416.09;;;8.23;47.27
64711;BME280;51139;45.626;6.850;2024-02-21T11:01:30;82406.06;;;8.22;45.98
64711;BME280;51139;45.626;6.850;2024-02-21T11:04:05;82402.56;;;8.50;47.74
64711;BME280;51139;45.626;6.850;2024-02-21T11:06:33;82398.00;;;8.51;48.84
64711;BME280;51139;45.626;6.850;2024-02-21T11:11:39;82393.72;;;8.79;48.65
64711;BME280;51139;45.626;6.850;2024-02-21T11:14:21;82383.19;;;8.40;50.01
64711;BME280;51139;45.626;6.850;2024-02-21T11:16:47;82385.66;;;8.53;49.30
64711;BME280;51139;45.626;6.850;2024-02-21T11:19:20;82382.13;;;8.43;49.81
64711;BME280;51139;45.626;6.850;2024-02-21T11:21:47;82388.47;;;8.09;47.55
64711;BME280;51139;45.626;6.850;2024-02-21T11:24:32;82381.69;;;7.38;48.14
64711;BME280;51139;45.626;6.850;2024-02-21T11:27:18;82382.81;;;7.66;49.54
64711;BME280;51139;45.626;6.850;2024-02-21T11:29:57;82368.22;;;8.42;49.93
64711;BME280;51139;45.626;6.850;2024-02-21T11:32:23;82362.78;;;8.25;48.22
64711;BME280;51139;45.626;6.850;2024-02-21T11:35:00;82361.94;;;8.07;49.66
64711;BME280;51139;45.626;6.850;2024-02-21T11:37:30;82363.72;;;8.99;44.85
64711;BME280;51139;45.626;6.850;2024-02-21T11:39:58;82352.34;;;8.73;45.35
64711;BME280;51139;45.626;6.850;2024-02-21T11:42:27;82348.13;;;8.63;47.64
64711;BME280;51139;45.626;6.850;2024-02-21T11:44:54;82351.88;;;8.28;46.52
64711;BME280;51139;45.626;6.850;2024-02-21T11:47:22;82341.50;;;7.61;50.92
64711;BME280;51139;45.626;6.850;2024-02-21T11:49:48;82334.44;;;8.33;47.16
64711;BME280;51139;45.626;6.850;2024-02-21T11:52:15;82343.06;;;8.26;49.25
64711;BME280;51139;45.626;6.850;2024-02-21T11:54:42;82332.03;;;7.73;48.52
64711;BME280;51139;45.626;6.850;2024-02-21T11:57:08;82328.88;;;8.06;47.79
64711;BME280;51139;45.626;6.850;2024-02-21T11:59:34;82321.78;;;8.31;46.08
64711;BME280;51139;45.626;6.850;2024-02-21T12:02:00;82333.44;;;7.97;46.23
64711;BME280;51139;45.626;6.850;2024-02-21T12:04:26;82320.94;;;8.06;47.09
64711;BME280;51139;45.626;6.850;2024-02-21T12:06:56;82317.78;;;8.07;45.35
64711;BME280;51139;45.626;6.850;2024-02-21T12:09:25;82320.06;;;8.03;44.01
64711;BME280;51139;45.626;6.850;2024-02-21T12:12:02;82309.53;;;7.87;45.25
64711;BME280;51139;45.626;6.850;2024-02-21T12:14:29;82308.63;;;7.85;45.25
64711;BME280;51139;45.626;6.850;2024-02-21T12:16:55;82307.38;;;8.17;43.75
64711;BME280;51139;45.626;6.850;2024-02-21T12:19:21;82305.09;;;8.13;48.51
64711;BME280;51139;45.626;6.850;2024-02-21T12:21:48;82306.28;;;8.28;44.67
64711;BME280;51139;45.626;6.850;2024-02-21T12:24:22;82307.22;;;7.84;45.19
64711;BME280;51139;45.626;6.850;2024-02-21T12:26:49;82301.41;;;8.16;45.65
64711;BME280;51139;45.626;6.850;2024-02-21T12:29:14;82295.94;;;8.14;46.64
64711;BME280;51139;45.626;6.850;2024-02-21T12:31:40;82294.72;;;8.15;45.94
64711;BME280;51139;45.626;6.850;2024-02-21T12:34:06;82293.78;;;8.36;47.06
64711;BME280;51139;45.626;6.850;2024-02-21T12:36:32;82294.88;;;8.17;44.45
64711;BME280;51139;45.626;6.850;2024-02-21T12:38:58;82291.56;;;8.09;47.06
64711;BME280;51139;45.626;6.850;2024-02-21T12:41:24;82294.50;;;8.44;47.22
64711;BME280;51139;45.626;6.850;2024-02-21T12:43:51;82295.19;;;8.53;44.26
64711;BME280;51139;45.626;6.850;2024-02-21T12:46:16;82285.00;;;8.49;45.21
64711;BME280;51139;45.626;6.850;2024-02-21T12:48:41;82290.47;;;8.36;43.67
64711;BME280;51139;45.626;6.850;2024-02-21T12:51:07;82288.31;;;8.42;44.63
64711;BME280;51139;45.626;6.850;2024-02-21T12:53:33;82287.00;;;8.82;47.16
64711;BME280;51139;45.626;6.850;2024-02-21T12:55:59;82281.34;;;8.85;47.08
64711;BME280;51139;45.626;6.850;2024-02-21T12:58:24;82274.22;;;9.03;45.16
64711;BME280;51139;45.626;6.850;2024-02-21T13:00:49;82271.97;;;8.51;43.23
64711;BME280;51139;45.626;6.850;2024-02-21T13:03:16;82270.59;;;8.83;43.50
64711;BME280;51139;45.626;6.850;2024-02-21T13:05:41;82259.38;;;8.75;43.41
64711;BME280;51139;45.626;6.850;2024-02-21T13:08:08;82261.16;;;8.65;45.07
64711;BME280;51139;45.626;6.850;2024-02-21T13:10:34;82264.28;;;8.79;45.01
64711;BME280;51139;45.626;6.850;2024-02-21T13:13:02;82259.25;;;8.65;47.16
64711;BME280;51139;45.626;6.850;2024-02-21T13:15:28;82255.59;;;8.45;46.60
64711;BME280;51139;45.626;6.850;2024-02-21T13:17:55;82250.19;;;8.27;43.37
64711;BME280;51139;45.626;6.850;2024-02-21T13:20:21;82243.50;;;8.18;42.14
64711;BME280;51139;45.626;6.850;2024-02-21T13:22:47;82239.00;;;8.03;43.68
64711;BME280;51139;45.626;6.850;2024-02-21T13:25:13;82239.75;;;7.11;43.22
64711;BME280;51139;45.626;6.850;2024-02-21T13:27:43;82224.66;;;7.42;43.37
64711;BME280;51139;45.626;6.850;2024-02-21T13:30:09;82220.22;;;7.76;43.56
64711;BME280;51139;45.626;6.850;2024-02-21T13:32:35;82233.25;;;7.58;44.57
64711;BME280;51139;45.626;6.850;2024-02-21T13:35:00;82217.22;;;7.95;44.40
64711;BME280;51139;45.626;6.850;2024-02-21T13:37:27;82215.78;;;8.02;44.76
64711;BME280;51139;45.626;6.850;2024-02-21T13:39:53;82208.13;;;8.29;42.65
64711;BME280;51139;45.626;6.850;2024-02-21T13:42:19;82201.56;;;8.46;44.98
64711;BME280;51139;45.626;6.850;2024-02-21T13:44:46;82192.06;;;8.43;47.15
64711;BME280;51139;45.626;6.850;2024-02-21T13:47:15;82184.31;;;8.53;44.65
64711;BME280;51139;45.626;6.850;2024-02-21T13:49:40;82181.03;;;8.29;47.18
64711;BME280;51139;45.626;6.850;2024-02-21T13:52:07;82179.69;;;7.25;48.68
64711;BME280;51139;45.626;6.850;2024-02-21T13:54:34;82174.34;;;7.79;47.56
64711;BME280;51139;45.626;6.850;2024-02-21T13:56:59;82163.13;;;8.20;45.99
64711;BME280;51139;45.626;6.850;2024-02-21T13:59:26;82166.56;;;7.89;48.05
64711;BME280;51139;45.626;6.850;2024-02-21T14:01:52;82154.53;;;8.11;47.63
64711;BME280;51139;45.626;6.850;2024-02-21T14:04:17;82162.03;;;7.74;50.66
64711;BME280;51139;45.626;6.850;2024-02-21T14:06:42;82161.81;;;7.95;47.19
64711;BME280;51139;45.626;6.850;2024-02-21T14:09:11;82156.00;;;7.89;48.49
64711;BME280;51139;45.626;6.850;2024-02-21T14:11:36;82150.03;;;7.96;48.38
64711;BME280;51139;45.626;6.850;2024-02-21T14:14:04;82146.84;;;7.98;48.29
64711;BME280;51139;45.626;6.850;2024-02-21T14:16:29;82150.53;;;7.23;51.73
64711;BME280;51139;45.626;6.850;2024-02-21T14:18:55;82142.28;;;7.98;49.29
64711;BME280;51139;45.626;6.850;2024-02-21T14:21:20;82134.34;;;8.39;49.86
64711;BME280;51139;45.626;6.850;2024-02-21T14:23:46;82127.81;;;8.56;49.34
64711;BME280;51139;45.626;6.850;2024-02-21T14:26:11;82119.50;;;8.59;48.92
64711;BME280;51139;45.626;6.850;2024-02-21T14:28:37;82129.88;;;8.24;47.48
64711;BME280;51139;45.626;6.850;2024-02-21T14:31:03;82126.00;;;8.17;47.49
64711;BME280;51139;45.626;6.850;2024-02-21T14:33:31;82127.91;;;8.25;48.47
64711;BME280;51139;45.626;6.850;2024-02-21T14:35:56;82128.50;;;8.15;47.40
64711;BME280;51139;45.626;6.850;2024-02-21T14:38:22;82125.34;;;8.09;49.31
64711;BME280;51139;45.626;6.850;2024-02-21T14:40:47;82132.81;;;7.95;48.46
64711;BME280;51139;45.626;6.850;2024-02-21T14:43:13;82127.78;;;7.74;51.24
64711;BME280;51139;45.626;6.850;2024-02-21T14:45:38;82126.06;;;8.10;51.69
64711;BME280;51139;45.626;6.850;2024-02-21T14:48:05;82119.00;;;8.12;51.94
64711;BME280;51139;45.626;6.850;2024-02-21T14:50:31;82121.22;;;8.31;50.83
64711;BME280;51139;45.626;6.850;2024-02-21T14:52:56;82120.38;;;8.21;51.06
64711;BME280;51139;45.626;6.850;2024-02-21T14:55:22;82112.25;;;8.27;50.89
64711;BME280;51139;45.626;6.850;2024-02-21T14:57:49;82110.56;;;8.47;50.43
64711;BME280;51139;45.626;6.850;2024-02-21T15:00:14;82110.34;;;8.20;49.69
64711;BME280;51139;45.626;6.850;2024-02-21T15:02:40;82109.69;;;8.11;48.47
64711;BME280;51139;45.626;6.850;2024-02-21T15:05:05;82103.66;;;8.26;49.72
64711;BME280;51139;45.626;6.850;2024-02-21T15:07:32;82103.97;;;8.30;48.04
64711;BME280;51139;45.626;6.850;2024-02-21T15:09:57;82099.38;;;8.31;47.81
64711;BME280;51139;45.626;6.850;2024-02-21T15:12:23;82101.75;;;7.70;51.58
64711;BME280;51139;45.626;6.850;2024-02-21T15:14:49;82108.56;;;7.25;52.02
64711;BME280;51139;45.626;6.850;2024-02-21T15:17:15;82103.28;;;7.25;52.99
64711;BME280;51139;45.626;6.850;2024-02-21T15:19:40;82096.69;;;7.65;53.81
64711;BME280;51139;45.626;6.850;2024-02-21T15:22:12;82104.28;;;7.45;51.45
64711;BME280;51139;45.626;6.850;2024-02-21T15:24:38;82100.13;;;7.19;53.45
64711;BME280;51139;45.626;6.850;2024-02-21T15:27:04;82097.50;;;7.19;52.19
64711;BME280;51139;45.626;6.850;2024-02-21T15:29:29;82097.16;;;7.07;54.47
64711;BME280;51139;45.626;6.850;2024-02-21T15:31:55;82091.50;;;7.26;53.18
64711;BME280;51139;45.626;6.850;2024-02-21T15:34:21;82083.34;;;7.63;51.57
64711;BME280;51139;45.626;6.850;2024-02-21T15:36:46;82098.53;;;7.31;51.17
64711;BME280;51139;45.626;6.850;2024-02-21T15:39:12;82098.13;;;7.50;49.35
64711;BME280;51139;45.626;6.850;2024-02-21T15:41:37;82097.03;;;7.61;51.37
64711;BME280;51139;45.626;6.850;2024-02-21T15:44:03;82093.44;;;7.82;50.90
64711;BME280;51139;45.626;6.850;2024-02-21T15:46:29;82094.09;;;7.98;47.60
64711;BME280;51139;45.626;6.850;2024-02-21T15:48:56;82084.28;;;7.91;44.51
64711;BME280;51139;45.626;6.850;2024-02-21T15:51:22;82087.41;;;7.48;44.98
64711;BME280;51139;45.626;6.850;2024-02-21T15:53:48;82086.47;;;7.69;45.22
64711;BME280;51139;45.626;6.850;2024-02-21T15:56:14;82085.50;;;7.41;47.79
64711;BME280;51139;45.626;6.850;2024-02-21T15:58:40;82065.41;;;6.66;50.59
64711;BME280;51139;45.626;6.850;2024-02-21T16:01:05;82071.91;;;6.49;52.83
64711;BME280;51139;45.626;6.850;2024-02-21T16:03:31;82066.28;;;6.61;54.10
64711;BME280;51139;45.626;6.850;2024-02-21T16:05:57;82071.91;;;6.72;53.50
64711;BME280;51139;45.626;6.850;2024-02-21T16:08:22;82068.34;;;7.01;54.63
64711;BME280;51139;45.626;6.850;2024-02-21T16:10:48;82075.38;;;7.22;55.84
64711;BME280;51139;45.626;6.850;2024-02-21T16:13:13;82065.53;;;7.14;55.38
64711;BME280;51139;45.626;6.850;2024-02-21T16:15:39;82077.09;;;7.27;52.15
64711;BME280;51139;45.626;6.850;2024-02-21T16:18:05;82067.94;;;7.36;53.24
64711;BME280;51139;45.626;6.850;2024-02-21T16:20:31;82065.84;;;7.26;54.15
64711;BME280;51139;45.626;6.850;2024-02-21T16:22:56;82055.19;;;7.09;53.98
64711;BME280;51139;45.626;6.850;2024-02-21T16:25:28;82055.25;;;6.54;51.85
64711;BME280;51139;45.626;6.850;2024-02-21T16:27:55;82063.13;;;6.85;51.08
64711;BME280;51139;45.626;6.850;2024-02-21T16:30:20;82059.94;;;7.03;49.43
64711;BME280;51139;45.626;6.850;2024-02-21T16:32:48;82060.81;;;6.90;51.18
64711;BME280;51139;45.626;6.850;2024-02-21T16:35:14;82068.19;;;7.07;49.58
64711;BME280;51139;45.626;6.850;2024-02-21T16:37:39;82059.22;;;7.10;49.77
64711;BME280;51139;45.626;6.850;2024-02-21T16:42:42;82054.84;;;7.05;49.24
64711;BME280;51139;45.626;6.850;2024-02-21T16:45:07;82053.84;;;6.77;50.30
64711;BME280;51139;45.626;6.850;2024-02-21T16:47:33;82048.75;;;6.17;50.78
64711;BME280;51139;45.626;6.850;2024-02-21T16:50:00;82049.94;;;6.08;51.67
64711;BME280;51139;45.626;6.850;2024-02-21T16:52:25;82051.19;;;6.15;53.34
64711;BME280;51139;45.626;6.850;2024-02-21T16:54:51;82042.78;;;6.55;53.01
64711;BME280;51139;45.626;6.850;2024-02-21T16:57:17;82043.50;;;6.63;51.31
64711;BME280;51139;45.626;6.850;2024-02-21T16:59:43;82049.97;;;6.62;52.53
64711;BME280;51139;45.626;6.850;2024-02-21T17:02:08;82064.72;;;6.65;53.36
64711;BME280;51139;45.626;6.850;2024-02-21T17:04:34;82064.91;;;6.67;53.65
64711;BME280;51139;45.626;6.850;2024-02-21T17:06:59;82061.19;;;6.55;52.74
64711;BME280;51139;45.626;6.850;2024-02-21T17:09:24;82066.78;;;6.05;53.47
64711;BME280;51139;45.626;6.850;2024-02-21T17:11:50;82070.13;;;6.21;54.28
64711;BME280;51139;45.626;6.850;2024-02-21T17:14:16;82071.63;;;5.85;55.45
64711;BME280;51139;45.626;6.850;2024-02-21T17:16:42;82067.78;;;5.94;56.18
64711;BME280;51139;45.626;6.850;2024-02-21T17:19:07;82077.09;;;6.03;56.70
64711;BME280;51139;45.626;6.850;2024-02-21T17:21:34;82074.06;;;5.75;56.36
64711;BME280;51139;45.626;6.850;2024-02-21T17:23:59;82075.84;;;5.88;56.00
64711;BME280;51139;45.626;6.850;2024-02-21T17:26:27;82078.13;;;5.92;54.48
64711;BME280;51139;45.626;6.850;2024-02-21T17:28:52;82075.03;;;6.01;54.56
64711;BME280;51139;45.626;6.850;2024-02-21T17:31:19;82076.09;;;6.13;53.49
64711;BME280;51139;45.626;6.850;2024-02-21T17:33:45;82077.28;;;6.05;54.03
64711;BME280;51139;45.626;6.850;2024-02-21T17:36:11;82075.94;;;6.35;54.68
64711;BME280;51139;45.626;6.850;2024-02-21T17:38:37;82076.97;;;6.39;53.29
64711;BME280;51139;45.626;6.850;2024-02-21T17:41:02;82082.22;;;6.16;52.90
64711;BME280;51139;45.626;6.850;2024-02-21T17:43:28;82079.97;;;6.36;52.84
64711;BME280;51139;45.626;6.850;2024-02-21T17:45:55;82082.78;;;6.38;53.18
64711;BME280;51139;45.626;6.850;2024-02-21T17:48:22;82087.34;;;6.30;53.75
64711;BME280;51139;45.626;6.850;2024-02-21T17:50:48;82086.28;;;6.40;52.81
64711;BME280;51139;45.626;6.850;2024-02-21T17:53:13;82079.78;;;6.41;53.89
64711;BME280;51139;45.626;6.850;2024-02-21T17:55:39;82075.84;;;5.96;53.55
64711;BME280;51139;45.626;6.850;2024-02-21T17:58:04;82074.69;;;6.12;54.21
64711;BME280;51139;45.626;6.850;2024-02-21T18:00:31;82083.13;;;6.26;54.11
64711;BME280;51139;45.626;6.850;2024-02-21T18:02:57;82080.28;;;6.17;54.37
64711;BME280;51139;45.626;6.850;2024-02-21T18:05:24;82078.91;;;6.31;54.79
64711;BME280;51139;45.626;6.850;2024-02-21T18:07:49;82073.81;;;6.33;53.91